Weather at Aviosuperficie La Selva

Public forecast

Using degrees Celsius for public forecast. Weather courtesy of forecast.io.

Closest aviation weather report (METAR) to Aviosuperficie La Selva

Closest report is Grazzanise Air Base, 8.1 nm (15.0 km) SW.

2024/07/21 21:55 (retrieved 36 minutes ago)

LIRM 212155Z 36003KT CAVOK 25/23 Q1009 RMK SKC VIS MIN 9999 WIND THR06 04003KT BLU

Closest aviation forecast (TAF) to Aviosuperficie La Selva

Closest forecast is Naples International Airport, 16.6 nm (30.7 km) SSE.

2024/07/21 18:40 (retrieved 4 hours ago)

TAF LIRN 211700Z 2118/2218 VRB05KT 9999 FEW040 TEMPO 2209/2214 RA BECMG 2210/2212 20010KT BECMG 2216/2218 VRB05KT